sensor_id;sensor_type;location;lat;lon;timestamp;pressure;altitude;pressure_sealevel;temperature;humidity
22311;BME280;11323;49.610;11.016;2023-02-20T00:02:41;99035.22;;;15.44;67.05
22311;BME280;11323;49.610;11.016;2023-02-20T00:07:42;99046.72;;;15.43;67.13
22311;BME280;11323;49.610;11.016;2023-02-20T00:12:42;99067.13;;;15.49;66.92
22311;BME280;11323;49.610;11.016;2023-02-20T00:17:43;99066.63;;;15.46;66.86
22311;BME280;11323;49.610;11.016;2023-02-20T00:22:47;99058.53;;;15.39;66.92
22311;BME280;11323;49.610;11.016;2023-02-20T00:27:47;99058.13;;;15.34;66.88
22311;BME280;11323;49.610;11.016;2023-02-20T00:32:49;99060.19;;;15.40;66.99
22311;BME280;11323;49.610;11.016;2023-02-20T00:37:51;99068.06;;;15.40;66.99
22311;BME280;11323;49.610;11.016;2023-02-20T00:42:52;99066.69;;;15.36;67.03
22311;BME280;11323;49.610;11.016;2023-02-20T00:47:52;99063.56;;;15.32;67.17
22311;BME280;11323;49.610;11.016;2023-02-20T00:52:52;99060.09;;;15.32;67.12
22311;BME280;11323;49.610;11.016;2023-02-20T00:57:53;99056.81;;;15.29;67.32
22311;BME280;11323;49.610;11.016;2023-02-20T01:02:56;99060.41;;;15.28;67.33
22311;BME280;11323;49.610;11.016;2023-02-20T01:07:56;99055.47;;;15.25;67.23
22311;BME280;11323;49.610;11.016;2023-02-20T01:12:57;99053.81;;;15.24;67.31
22311;BME280;11323;49.610;11.016;2023-02-20T01:17:57;99055.75;;;15.22;67.09
22311;BME280;11323;49.610;11.016;2023-02-20T01:22:58;99068.19;;;15.20;67.10
22311;BME280;11323;49.610;11.016;2023-02-20T01:27:58;99050.81;;;15.19;67.31
22311;BME280;11323;49.610;11.016;2023-02-20T01:32:58;99054.44;;;15.18;67.23
22311;BME280;11323;49.610;11.016;2023-02-20T01:37:59;99056.38;;;15.16;67.29
22311;BME280;11323;49.610;11.016;2023-02-20T01:43:01;99056.50;;;15.14;67.27
22311;BME280;11323;49.610;11.016;2023-02-20T01:48:02;99046.47;;;15.10;67.46
22311;BME280;11323;49.610;11.016;2023-02-20T01:53:07;99047.44;;;15.09;67.38
22311;BME280;11323;49.610;11.016;2023-02-20T01:58:14;99028.31;;;14.98;67.42
22311;BME280;11323;49.610;11.016;2023-02-20T02:03:21;99037.72;;;15.01;67.67
22311;BME280;11323;49.610;11.016;2023-02-20T02:08:24;99037.84;;;15.00;67.82
22311;BME280;11323;49.610;11.016;2023-02-20T02:13:25;99027.78;;;14.95;67.76
22311;BME280;11323;49.610;11.016;2023-02-20T02:18:37;99038.28;;;14.95;67.63
22311;BME280;11323;49.610;11.016;2023-02-20T02:23:55;99039.44;;;14.92;67.72
22311;BME280;11323;49.610;11.016;2023-02-20T02:29:08;99040.56;;;14.90;68.04
22311;BME280;11323;49.610;11.016;2023-02-20T02:34:40;99028.25;;;14.90;67.77
22311;BME280;11323;49.610;11.016;2023-02-20T02:45:20;99010.16;;;14.87;67.75
22311;BME280;11323;49.610;11.016;2023-02-20T02:50:33;99012.16;;;14.85;67.80
22311;BME280;11323;49.610;11.016;2023-02-20T02:55:36;99000.56;;;14.78;67.74
22311;BME280;11323;49.610;11.016;2023-02-20T03:00:39;98987.31;;;14.79;67.87
22311;BME280;11323;49.610;11.016;2023-02-20T03:05:52;99001.94;;;14.82;67.96
22311;BME280;11323;49.610;11.016;2023-02-20T03:10:54;99012.44;;;14.82;68.08
22311;BME280;11323;49.610;11.016;2023-02-20T03:15:57;99007.47;;;14.79;67.91
22311;BME280;11323;49.610;11.016;2023-02-20T03:21:10;99013.56;;;14.79;67.79
22311;BME280;11323;49.610;11.016;2023-02-20T03:26:16;99011.69;;;14.72;68.17
22311;BME280;11323;49.610;11.016;2023-02-20T03:31:50;99025.16;;;14.77;68.22
22311;BME280;11323;49.610;11.016;2023-02-20T03:37:18;99008.22;;;14.71;68.31
22311;BME280;11323;49.610;11.016;2023-02-20T03:42:43;99024.50;;;14.75;68.08
22311;BME280;11323;49.610;11.016;2023-02-20T03:48:11;99026.28;;;14.74;68.13
22311;BME280;11323;49.610;11.016;2023-02-20T03:53:14;99016.94;;;14.72;68.32
22311;BME280;11323;49.610;11.016;2023-02-20T03:58:17;98999.53;;;14.71;67.93
22311;BME280;11323;49.610;11.016;2023-02-20T04:03:21;99010.31;;;14.67;68.17
22311;BME280;11323;49.610;11.016;2023-02-20T04:13:46;99022.19;;;14.72;67.98
22311;BME280;11323;49.610;11.016;2023-02-20T04:18:47;99003.13;;;14.70;68.39
22311;BME280;11323;49.610;11.016;2023-02-20T04:23:56;99018.88;;;14.70;68.01
22311;BME280;11323;49.610;11.016;2023-02-20T04:29:03;99005.91;;;14.68;68.04
22311;BME280;11323;49.610;11.016;2023-02-20T04:34:04;98995.53;;;14.66;68.26
22311;BME280;11323;49.610;11.016;2023-02-20T04:39:04;99012.66;;;14.71;67.82
22311;BME280;11323;49.610;11.016;2023-02-20T04:44:06;99031.03;;;14.71;68.06
22311;BME280;11323;49.610;11.016;2023-02-20T04:49:28;99021.66;;;14.68;67.84
22311;BME280;11323;49.610;11.016;2023-02-20T04:54:31;99020.81;;;14.67;68.04
22311;BME280;11323;49.610;11.016;2023-02-20T04:59:32;99022.47;;;14.69;67.76
22311;BME280;11323;49.610;11.016;2023-02-20T05:04:33;99026.91;;;14.68;67.79
22311;BME280;11323;49.610;11.016;2023-02-20T05:09:34;99031.56;;;14.64;68.11
22311;BME280;11323;49.610;11.016;2023-02-20T05:14:34;99027.09;;;14.57;68.37
22311;BME280;11323;49.610;11.016;2023-02-20T05:19:35;99042.22;;;14.63;68.26
22311;BME280;11323;49.610;11.016;2023-02-20T05:24:35;99039.88;;;14.60;68.44
22311;BME280;11323;49.610;11.016;2023-02-20T05:29:35;99041.31;;;14.54;68.17
22311;BME280;11323;49.610;11.016;2023-02-20T05:34:36;99050.38;;;14.60;68.30
22311;BME280;11323;49.610;11.016;2023-02-20T05:39:37;99067.78;;;14.61;68.17
22311;BME280;11323;49.610;11.016;2023-02-20T05:44:37;99057.34;;;14.51;67.98
22311;BME280;11323;49.610;11.016;2023-02-20T05:49:37;99068.91;;;14.58;68.16
22311;BME280;11323;49.610;11.016;2023-02-20T05:54:39;99065.47;;;14.58;68.01
22311;BME280;11323;49.610;11.016;2023-02-20T05:59:40;99070.84;;;14.56;68.17
22311;BME280;11323;49.610;11.016;2023-02-20T06:04:40;99053.31;;;14.57;68.33
22311;BME280;11323;49.610;11.016;2023-02-20T06:09:43;99059.66;;;14.54;68.31
22311;BME280;11323;49.610;11.016;2023-02-20T06:14:44;99053.44;;;14.55;68.27
22311;BME280;11323;49.610;11.016;2023-02-20T06:19:44;99052.63;;;14.55;68.33
22311;BME280;11323;49.610;11.016;2023-02-20T06:24:46;99069.50;;;14.52;68.28
22311;BME280;11323;49.610;11.016;2023-02-20T06:29:46;99076.38;;;14.53;68.38
22311;BME280;11323;49.610;11.016;2023-02-20T06:34:47;99081.94;;;14.50;68.47
22311;BME280;11323;49.610;11.016;2023-02-20T06:39:47;99073.09;;;14.51;68.08
22311;BME280;11323;49.610;11.016;2023-02-20T06:44:48;99076.69;;;14.50;68.45
22311;BME280;11323;49.610;11.016;2023-02-20T06:49:48;99085.53;;;14.49;68.47
22311;BME280;11323;49.610;11.016;2023-02-20T06:54:49;99083.72;;;14.49;68.30
22311;BME280;11323;49.610;11.016;2023-02-20T06:59:52;99093.53;;;14.47;68.51
22311;BME280;11323;49.610;11.016;2023-02-20T07:04:52;99091.91;;;14.46;68.26
22311;BME280;11323;49.610;11.016;2023-02-20T07:09:53;99085.13;;;14.44;68.64
22311;BME280;11323;49.610;11.016;2023-02-20T07:14:53;99086.09;;;14.43;68.53
22311;BME280;11323;49.610;11.016;2023-02-20T07:19:53;99078.38;;;14.41;68.35
22311;BME280;11323;49.610;11.016;2023-02-20T07:24:54;99070.34;;;14.43;68.54
22311;BME280;11323;49.610;11.016;2023-02-20T07:29:54;99073.94;;;14.42;68.55
22311;BME280;11323;49.610;11.016;2023-02-20T07:34:55;99080.31;;;14.39;68.76
22311;BME280;11323;49.610;11.016;2023-02-20T07:39:55;99081.72;;;14.33;68.52
22311;BME280;11323;49.610;11.016;2023-02-20T07:44:55;99097.44;;;14.43;68.52
22311;BME280;11323;49.610;11.016;2023-02-20T07:49:56;99071.31;;;14.42;68.88
22311;BME280;11323;49.610;11.016;2023-02-20T07:54:56;99045.22;;;14.50;69.17
22311;BME280;11323;49.610;11.016;2023-02-20T07:59:56;99058.41;;;14.58;69.03
22311;BME280;11323;49.610;11.016;2023-02-20T08:04:57;99056.47;;;14.60;68.81
22311;BME280;11323;49.610;11.016;2023-02-20T08:09:57;99039.06;;;14.69;68.92
22311;BME280;11323;49.610;11.016;2023-02-20T08:14:59;99051.13;;;14.80;69.06
22311;BME280;11323;49.610;11.016;2023-02-20T08:19:59;99075.66;;;14.89;69.10
22311;BME280;11323;49.610;11.016;2023-02-20T08:24:59;99054.34;;;14.92;69.36
22311;BME280;11323;49.610;11.016;2023-02-20T08:30:00;99045.34;;;14.94;69.37
22311;BME280;11323;49.610;11.016;2023-02-20T08:35:00;99053.59;;;15.00;69.04
22311;BME280;11323;49.610;11.016;2023-02-20T08:40:01;99044.28;;;15.05;69.16
22311;BME280;11323;49.610;11.016;2023-02-20T08:45:07;99035.94;;;15.10;68.84
22311;BME280;11323;49.610;11.016;2023-02-20T08:50:08;99042.56;;;15.14;69.02
22311;BME280;11323;49.610;11.016;2023-02-20T08:55:09;99017.06;;;15.06;68.50
22311;BME280;11323;49.610;11.016;2023-02-20T09:00:10;99029.44;;;15.14;68.82
22311;BME280;11323;49.610;11.016;2023-02-20T09:05:10;99032.28;;;15.21;68.56
22311;BME280;11323;49.610;11.016;2023-02-20T09:10:11;99021.47;;;15.24;68.39
22311;BME280;11323;49.610;11.016;2023-02-20T09:15:11;99003.91;;;15.24;68.33
22311;BME280;11323;49.610;11.016;2023-02-20T09:20:14;98997.97;;;15.22;68.10
22311;BME280;11323;49.610;11.016;2023-02-20T09:25:15;98989.44;;;15.20;68.29
22311;BME280;11323;49.610;11.016;2023-02-20T09:30:17;98994.38;;;15.23;68.27
22311;BME280;11323;49.610;11.016;2023-02-20T09:35:23;98985.53;;;15.24;68.20
22311;BME280;11323;49.610;11.016;2023-02-20T09:40:26;98989.66;;;15.27;68.08
22311;BME280;11323;49.610;11.016;2023-02-20T09:45:31;98981.94;;;15.25;68.02
22311;BME280;11323;49.610;11.016;2023-02-20T09:50:41;98974.34;;;15.22;64.28
22311;BME280;11323;49.610;11.016;2023-02-20T09:55:44;98950.03;;;14.76;58.99
22311;BME280;11323;49.610;11.016;2023-02-20T10:00:45;98961.22;;;14.78;59.28
22311;BME280;11323;49.610;11.016;2023-02-20T10:05:46;98955.72;;;14.89;62.62
22311;BME280;11323;49.610;11.016;2023-02-20T10:10:50;98952.88;;;15.01;63.13
22311;BME280;11323;49.610;11.016;2023-02-20T10:15:59;98944.66;;;14.95;63.98
22311;BME280;11323;49.610;11.016;2023-02-20T10:21:07;98950.41;;;14.99;64.48
22311;BME280;11323;49.610;11.016;2023-02-20T10:26:27;98939.41;;;14.95;64.80
22311;BME280;11323;49.610;11.016;2023-02-20T10:31:43;98934.44;;;14.92;64.94
22311;BME280;11323;49.610;11.016;2023-02-20T10:36:48;98929.78;;;14.86;65.15
22311;BME280;11323;49.610;11.016;2023-02-20T10:41:54;98930.84;;;14.93;65.58
22311;BME280;11323;49.610;11.016;2023-02-20T10:47:04;98927.38;;;14.93;65.41
22311;BME280;11323;49.610;11.016;2023-02-20T10:52:09;98925.06;;;14.90;65.28
22311;BME280;11323;49.610;11.016;2023-02-20T11:02:26;98893.59;;;14.90;66.25
22311;BME280;11323;49.610;11.016;2023-02-20T11:07:29;98885.38;;;14.93;65.82
22311;BME280;11323;49.610;11.016;2023-02-20T11:12:42;98867.84;;;14.93;65.99
22311;BME280;11323;49.610;11.016;2023-02-20T11:17:45;98859.34;;;15.00;66.23
22311;BME280;11323;49.610;11.016;2023-02-20T11:22:48;98844.28;;;15.02;66.64
22311;BME280;11323;49.610;11.016;2023-02-20T11:27:51;98828.88;;;15.07;66.61
22311;BME280;11323;49.610;11.016;2023-02-20T11:33:20;98835.63;;;15.09;66.91
22311;BME280;11323;49.610;11.016;2023-02-20T11:43:32;98824.66;;;15.14;67.17
22311;BME280;11323;49.610;11.016;2023-02-20T11:48:34;98815.13;;;15.13;66.29
22311;BME280;11323;49.610;11.016;2023-02-20T11:53:34;98821.72;;;15.17;66.39
22311;BME280;11323;49.610;11.016;2023-02-20T11:58:36;98807.63;;;15.18;66.92
22311;BME280;11323;49.610;11.016;2023-02-20T12:03:37;98789.88;;;15.20;67.15
22311;BME280;11323;49.610;11.016;2023-02-20T12:13:43;98772.16;;;15.22;66.88
22311;BME280;11323;49.610;11.016;2023-02-20T12:19:14;98762.00;;;15.19;66.74
22311;BME280;11323;49.610;11.016;2023-02-20T12:30:10;98738.31;;;15.11;67.00
22311;BME280;11323;49.610;11.016;2023-02-20T12:40:32;98747.22;;;15.18;67.19
22311;BME280;11323;49.610;11.016;2023-02-20T12:45:47;98739.00;;;15.21;67.14
22311;BME280;11323;49.610;11.016;2023-02-20T12:50:54;98740.66;;;15.22;67.18
22311;BME280;11323;49.610;11.016;2023-02-20T13:01:06;98712.25;;;15.18;67.51
22311;BME280;11323;49.610;11.016;2023-02-20T13:06:08;98719.03;;;15.28;67.50
22311;BME280;11323;49.610;11.016;2023-02-20T13:11:15;98708.66;;;15.27;67.30
22311;BME280;11323;49.610;11.016;2023-02-20T13:16:30;98720.97;;;15.26;67.29
22311;BME280;11323;49.610;11.016;2023-02-20T13:21:31;98698.97;;;15.19;67.27
22311;BME280;11323;49.610;11.016;2023-02-20T13:36:46;98673.53;;;15.11;67.59
22311;BME280;11323;49.610;11.016;2023-02-20T13:47:56;98669.41;;;15.09;67.43
22311;BME280;11323;49.610;11.016;2023-02-20T13:57:31;98670.06;;;15.11;67.37
22311;BME280;11323;49.610;11.016;2023-02-20T14:02:39;98655.09;;;15.03;67.36
22311;BME280;11323;49.610;11.016;2023-02-20T14:07:43;98647.88;;;14.97;67.41
22311;BME280;11323;49.610;11.016;2023-02-20T14:12:46;98637.88;;;15.01;67.40
22311;BME280;11323;49.610;11.016;2023-02-20T14:17:53;98647.56;;;15.00;67.49
22311;BME280;11323;49.610;11.016;2023-02-20T14:23:24;98652.81;;;15.00;67.55
22311;BME280;11323;49.610;11.016;2023-02-20T14:28:26;98629.88;;;15.02;67.37
22311;BME280;11323;49.610;11.016;2023-02-20T14:33:28;98605.72;;;14.98;67.45
22311;BME280;11323;49.610;11.016;2023-02-20T14:38:46;98608.03;;;15.02;67.33
22311;BME280;11323;49.610;11.016;2023-02-20T14:43:58;98579.16;;;14.93;67.16
22311;BME280;11323;49.610;11.016;2023-02-20T14:49:16;98579.47;;;14.98;67.20
22311;BME280;11323;49.610;11.016;2023-02-20T14:54:24;98580.31;;;14.99;67.55
22311;BME280;11323;49.610;11.016;2023-02-20T14:59:39;98562.56;;;14.93;67.15
22311;BME280;11323;49.610;11.016;2023-02-20T15:04:51;98557.84;;;14.96;67.39
22311;BME280;11323;49.610;11.016;2023-02-20T15:09:55;98564.72;;;14.97;67.19
22311;BME280;11323;49.610;11.016;2023-02-20T15:15:00;98573.59;;;14.96;67.21
22311;BME280;11323;49.610;11.016;2023-02-20T15:20:18;98580.44;;;14.97;67.29
22311;BME280;11323;49.610;11.016;2023-02-20T15:25:29;98561.44;;;14.95;67.22
22311;BME280;11323;49.610;11.016;2023-02-20T15:30:30;98548.47;;;14.94;67.51
22311;BME280;11323;49.610;11.016;2023-02-20T15:35:30;98568.66;;;14.93;67.22
22311;BME280;11323;49.610;11.016;2023-02-20T15:40:33;98557.31;;;14.93;67.26
22311;BME280;11323;49.610;11.016;2023-02-20T15:45:34;98546.66;;;14.86;67.08
22311;BME280;11323;49.610;11.016;2023-02-20T15:50:36;98547.47;;;14.87;67.25
22311;BME280;11323;49.610;11.016;2023-02-20T15:55:37;98563.72;;;14.90;67.38
22311;BME280;11323;49.610;11.016;2023-02-20T16:00:37;98551.56;;;14.89;67.23
22311;BME280;11323;49.610;11.016;2023-02-20T16:05:37;98558.78;;;14.87;67.23
22311;BME280;11323;49.610;11.016;2023-02-20T16:10:38;98555.19;;;14.88;67.29
22311;BME280;11323;49.610;11.016;2023-02-20T16:15:38;98549.44;;;14.85;67.34
22311;BME280;11323;49.610;11.016;2023-02-20T16:20:38;98540.75;;;14.84;67.26
22311;BME280;11323;49.610;11.016;2023-02-20T16:25:39;98554.53;;;14.86;67.41
22311;BME280;11323;49.610;11.016;2023-02-20T16:30:42;98533.03;;;14.82;67.39
22311;BME280;11323;49.610;11.016;2023-02-20T16:35:45;98550.59;;;14.82;67.57
22311;BME280;11323;49.610;11.016;2023-02-20T16:40:46;98551.41;;;14.82;67.39
22311;BME280;11323;49.610;11.016;2023-02-20T16:45:50;98531.56;;;14.72;67.20
22311;BME280;11323;49.610;11.016;2023-02-20T16:50:51;98547.31;;;14.80;67.53
22311;BME280;11323;49.610;11.016;2023-02-20T16:55:52;98545.66;;;14.79;67.67
22311;BME280;11323;49.610;11.016;2023-02-20T17:00:53;98537.13;;;14.77;67.55
22311;BME280;11323;49.610;11.016;2023-02-20T17:05:54;98543.34;;;14.76;68.06
22311;BME280;11323;49.610;11.016;2023-02-20T17:10:58;98547.47;;;14.87;68.03
22311;BME280;11323;49.610;11.016;2023-02-20T17:15:58;98555.84;;;14.90;67.91
22311;BME280;11323;49.610;11.016;2023-02-20T17:20:59;98563.41;;;14.93;67.92
22311;BME280;11323;49.610;11.016;2023-02-20T17:25:59;98543.88;;;14.88;68.07
22311;BME280;11323;49.610;11.016;2023-02-20T17:31:00;98555.84;;;14.98;68.34
22311;BME280;11323;49.610;11.016;2023-02-20T17:36:00;98567.84;;;15.01;68.37
22311;BME280;11323;49.610;11.016;2023-02-20T17:41:00;98568.00;;;15.00;68.46
22311;BME280;11323;49.610;11.016;2023-02-20T17:46:01;98563.91;;;15.05;68.69
22311;BME280;11323;49.610;11.016;2023-02-20T17:51:02;98560.78;;;15.02;68.33
22311;BME280;11323;49.610;11.016;2023-02-20T17:56:03;98567.00;;;15.09;68.53
22311;BME280;11323;49.610;11.016;2023-02-20T18:01:03;98573.59;;;15.13;68.48
22311;BME280;11323;49.610;11.016;2023-02-20T18:06:04;98573.59;;;15.13;68.34
22311;BME280;11323;49.610;11.016;2023-02-20T18:11:05;98568.16;;;15.14;68.52
22311;BME280;11323;49.610;11.016;2023-02-20T18:16:05;98568.03;;;15.16;68.41
22311;BME280;11323;49.610;11.016;2023-02-20T18:21:15;98574.25;;;15.15;68.56
22311;BME280;11323;49.610;11.016;2023-02-20T18:26:16;98557.53;;;15.16;68.59
22311;BME280;11323;49.610;11.016;2023-02-20T18:31:19;98571.81;;;15.22;68.42
22311;BME280;11323;49.610;11.016;2023-02-20T18:36:19;98565.72;;;15.21;68.69
22311;BME280;11323;49.610;11.016;2023-02-20T18:41:20;98556.53;;;15.25;68.73
22311;BME280;11323;49.610;11.016;2023-02-20T18:46:28;98552.94;;;15.26;68.64
22311;BME280;11323;49.610;11.016;2023-02-20T18:51:35;98538.47;;;15.22;68.38
22311;BME280;11323;49.610;11.016;2023-02-20T18:56:35;98556.22;;;15.28;68.66
22311;BME280;11323;49.610;11.016;2023-02-20T19:01:40;98559.81;;;15.27;68.52
22311;BME280;11323;49.610;11.016;2023-02-20T19:06:40;98560.63;;;15.28;68.37
22311;BME280;11323;49.610;11.016;2023-02-20T19:11:51;98551.28;;;15.25;68.27
22311;BME280;11323;49.610;11.016;2023-02-20T19:16:55;98555.22;;;15.21;68.38
22311;BME280;11323;49.610;11.016;2023-02-20T19:21:56;98558.81;;;15.20;68.34
22311;BME280;11323;49.610;11.016;2023-02-20T19:26:57;98567.72;;;15.19;68.25
22311;BME280;11323;49.610;11.016;2023-02-20T19:31:57;98544.38;;;15.00;68.44
22311;BME280;11323;49.610;11.016;2023-02-20T19:37:01;98569.00;;;15.07;68.59
22311;BME280;11323;49.610;11.016;2023-02-20T19:42:02;98567.38;;;15.06;68.42
22311;BME280;11323;49.610;11.016;2023-02-20T19:47:03;98558.16;;;15.10;68.21
22311;BME280;11323;49.610;11.016;2023-02-20T19:52:03;98563.41;;;15.10;68.17
22311;BME280;11323;49.610;11.016;2023-02-20T19:57:04;98564.38;;;15.01;68.53
22311;BME280;11323;49.610;11.016;2023-02-20T20:02:05;98568.50;;;15.03;68.50
22311;BME280;11323;49.610;11.016;2023-02-20T20:07:05;98566.22;;;15.08;68.71
22311;BME280;11323;49.610;11.016;2023-02-20T20:12:06;98562.28;;;15.12;68.73
22311;BME280;11323;49.610;11.016;2023-02-20T20:17:25;98554.56;;;15.11;68.69
22311;BME280;11323;49.610;11.016;2023-02-20T20:22:27;98564.06;;;15.20;68.48
22311;BME280;11323;49.610;11.016;2023-02-20T20:27:27;98568.69;;;15.26;68.35
22311;BME280;11323;49.610;11.016;2023-02-20T20:32:27;98570.63;;;15.33;68.24
22311;BME280;11323;49.610;11.016;2023-02-20T20:37:28;98555.53;;;15.35;68.19
22311;BME280;11323;49.610;11.016;2023-02-20T20:42:28;98561.13;;;15.40;68.17
22311;BME280;11323;49.610;11.016;2023-02-20T20:47:29;98546.38;;;15.39;68.14
22311;BME280;11323;49.610;11.016;2023-02-20T20:52:30;98540.44;;;15.45;68.05
22311;BME280;11323;49.610;11.016;2023-02-20T20:57:33;98535.53;;;15.42;67.85
22311;BME280;11323;49.610;11.016;2023-02-20T21:02:34;98539.78;;;15.51;67.90
22311;BME280;11323;49.610;11.016;2023-02-20T21:07:35;98531.72;;;15.53;68.11
22311;BME280;11323;49.610;11.016;2023-02-20T21:12:36;98542.72;;;15.56;67.95
22311;BME280;11323;49.610;11.016;2023-02-20T21:17:36;98523.53;;;15.56;67.63
22311;BME280;11323;49.610;11.016;2023-02-20T21:22:37;98533.53;;;15.60;67.48
22311;BME280;11323;49.610;11.016;2023-02-20T21:27:37;98528.28;;;15.60;67.92
22311;BME280;11323;49.610;11.016;2023-02-20T21:32:38;98524.03;;;15.51;65.08
22311;BME280;11323;49.610;11.016;2023-02-20T21:37:38;98524.00;;;15.43;65.86
22311;BME280;11323;49.610;11.016;2023-02-20T21:42:38;98525.03;;;15.42;66.12
22311;BME280;11323;49.610;11.016;2023-02-20T21:47:57;98521.88;;;15.38;66.23
22311;BME280;11323;49.610;11.016;2023-02-20T21:52:58;98514.50;;;15.34;66.54
22311;BME280;11323;49.610;11.016;2023-02-20T21:57:59;98525.84;;;15.26;66.41
22311;BME280;11323;49.610;11.016;2023-02-20T22:02:59;98526.66;;;15.26;66.27
22311;BME280;11323;49.610;11.016;2023-02-20T22:08:00;98521.41;;;15.26;66.47
22311;BME280;11323;49.610;11.016;2023-02-20T22:13:19;98520.28;;;15.21;66.62
22311;BME280;11323;49.610;11.016;2023-02-20T22:18:37;98519.44;;;15.20;66.67
22311;BME280;11323;49.610;11.016;2023-02-20T22:23:56;98518.81;;;15.18;67.04
22311;BME280;11323;49.610;11.016;2023-02-20T22:29:15;98523.41;;;15.16;66.86
22311;BME280;11323;49.610;11.016;2023-02-20T22:34:34;98525.38;;;15.06;66.92
22311;BME280;11323;49.610;11.016;2023-02-20T22:39:53;98536.34;;;15.09;66.97
22311;BME280;11323;49.610;11.016;2023-02-20T22:45:12;98519.13;;;15.07;66.90
22311;BME280;11323;49.610;11.016;2023-02-20T22:50:31;98528.13;;;15.04;66.96
22311;BME280;11323;49.610;11.016;2023-02-20T22:55:50;98517.63;;;14.96;67.01
22311;BME280;11323;49.610;11.016;2023-02-20T23:01:09;98519.28;;;14.89;67.09
22311;BME280;11323;49.610;11.016;2023-02-20T23:06:28;98535.69;;;14.91;67.09
22311;BME280;11323;49.610;11.016;2023-02-20T23:11:47;98539.63;;;14.87;67.40
22311;BME280;11323;49.610;11.016;2023-02-20T23:17:06;98544.19;;;14.85;67.31
22311;BME280;11323;49.610;11.016;2023-02-20T23:22:25;98543.53;;;14.82;67.46
22311;BME280;11323;49.610;11.016;2023-02-20T23:27:44;98550.91;;;14.79;67.49
22311;BME280;11323;49.610;11.016;2023-02-20T23:33:03;98558.63;;;14.80;67.38
22311;BME280;11323;49.610;11.016;2023-02-20T23:38:22;98570.25;;;14.78;67.55
22311;BME280;11323;49.610;11.016;2023-02-20T23:43:41;98564.34;;;14.76;67.22
22311;BME280;11323;49.610;11.016;2023-02-20T23:48:59;98565.84;;;14.78;67.30
22311;BME280;11323;49.610;11.016;2023-02-20T23:54:18;98565.34;;;14.75;67.45
22311;BME280;11323;49.610;11.016;2023-02-20T23:59:37;98564.19;;;14.77;67.18
